sensor_id;sensor_type;location;lat;lon;timestamp;P1;durP1;ratioP1;P2;durP2;ratioP2
54665;SDS011;40566;50.006;36.180;2023-02-23T00:04:25;7.13;;;2.75;;
54665;SDS011;40566;50.006;36.180;2023-02-23T00:09:26;9.60;;;3.47;;
54665;SDS011;40566;50.006;36.180;2023-02-23T00:14:34;11.82;;;2.58;;
54665;SDS011;40566;50.006;36.180;2023-02-23T00:19:36;4.38;;;2.08;;
54665;SDS011;40566;50.006;36.180;2023-02-23T00:24:37;3.33;;;2.33;;
54665;SDS011;40566;50.006;36.180;2023-02-23T00:29:39;2.60;;;2.17;;
54665;SDS011;40566;50.006;36.180;2023-02-23T00:34:40;5.03;;;2.72;;
54665;SDS011;40566;50.006;36.180;2023-02-23T00:39:40;8.00;;;2.47;;
54665;SDS011;40566;50.006;36.180;2023-02-23T00:44:41;4.85;;;2.38;;
54665;SDS011;40566;50.006;36.180;2023-02-23T00:49:42;5.53;;;3.08;;
54665;SDS011;40566;50.006;36.180;2023-02-23T00:54:44;5.88;;;2.53;;
54665;SDS011;40566;50.006;36.180;2023-02-23T00:59:44;6.72;;;3.20;;
54665;SDS011;40566;50.006;36.180;2023-02-23T01:04:45;5.85;;;2.75;;
54665;SDS011;40566;50.006;36.180;2023-02-23T01:09:45;4.07;;;1.95;;
54665;SDS011;40566;50.006;36.180;2023-02-23T01:14:46;10.85;;;2.70;;
54665;SDS011;40566;50.006;36.180;2023-02-23T01:19:47;7.22;;;3.72;;
54665;SDS011;40566;50.006;36.180;2023-02-23T01:24:47;4.32;;;2.25;;
54665;SDS011;40566;50.006;36.180;2023-02-23T01:29:48;5.70;;;1.80;;
54665;SDS011;40566;50.006;36.180;2023-02-23T01:34:49;8.40;;;3.53;;
54665;SDS011;40566;50.006;36.180;2023-02-23T01:39:49;4.95;;;2.38;;
54665;SDS011;40566;50.006;36.180;2023-02-23T01:50:27;5.50;;;2.40;;
54665;SDS011;40566;50.006;36.180;2023-02-23T01:55:30;3.78;;;2.17;;
54665;SDS011;40566;50.006;36.180;2023-02-23T02:00:30;4.15;;;2.53;;
54665;SDS011;40566;50.006;36.180;2023-02-23T02:05:36;3.22;;;2.03;;
54665;SDS011;40566;50.006;36.180;2023-02-23T02:10:38;1.95;;;1.30;;
54665;SDS011;40566;50.006;36.180;2023-02-23T02:15:51;10.00;;;3.13;;
54665;SDS011;40566;50.006;36.180;2023-02-23T02:41:52;13.70;;;2.55;;
54665;SDS011;40566;50.006;36.180;2023-02-23T02:47:05;3.55;;;2.15;;
54665;SDS011;40566;50.006;36.180;2023-02-23T02:57:21;4.95;;;2.13;;
54665;SDS011;40566;50.006;36.180;2023-02-23T03:02:25;4.40;;;2.13;;
54665;SDS011;40566;50.006;36.180;2023-02-23T03:24:38;3.33;;;2.20;;
54665;SDS011;40566;50.006;36.180;2023-02-23T03:30:23;3.75;;;1.80;;
54665;SDS011;40566;50.006;36.180;2023-02-23T03:35:56;3.90;;;2.60;;
54665;SDS011;40566;50.006;36.180;2023-02-23T03:41:19;3.10;;;0.98;;
54665;SDS011;40566;50.006;36.180;2023-02-23T03:46:42;8.13;;;4.28;;
54665;SDS011;40566;50.006;36.180;2023-02-23T03:52:06;2.50;;;1.60;;
54665;SDS011;40566;50.006;36.180;2023-02-23T03:57:32;2.08;;;1.33;;
54665;SDS011;40566;50.006;36.180;2023-02-23T04:02:54;7.10;;;2.22;;
54665;SDS011;40566;50.006;36.180;2023-02-23T04:08:16;3.22;;;1.58;;
54665;SDS011;40566;50.006;36.180;2023-02-23T04:13:37;5.72;;;1.73;;
54665;SDS011;40566;50.006;36.180;2023-02-23T04:18:39;3.67;;;2.55;;
54665;SDS011;40566;50.006;36.180;2023-02-23T04:23:41;8.57;;;2.42;;
54665;SDS011;40566;50.006;36.180;2023-02-23T04:28:42;5.57;;;2.42;;
54665;SDS011;40566;50.006;36.180;2023-02-23T04:33:43;3.30;;;2.08;;
54665;SDS011;40566;50.006;36.180;2023-02-23T04:38:43;4.55;;;1.88;;
54665;SDS011;40566;50.006;36.180;2023-02-23T04:43:44;4.88;;;2.60;;
54665;SDS011;40566;50.006;36.180;2023-02-23T04:48:44;3.75;;;2.47;;
54665;SDS011;40566;50.006;36.180;2023-02-23T04:53:45;2.80;;;1.25;;
54665;SDS011;40566;50.006;36.180;2023-02-23T04:58:46;1.33;;;1.20;;
54665;SDS011;40566;50.006;36.180;2023-02-23T05:03:49;5.10;;;2.30;;
54665;SDS011;40566;50.006;36.180;2023-02-23T05:08:50;2.40;;;1.95;;
54665;SDS011;40566;50.006;36.180;2023-02-23T05:13:50;3.38;;;1.42;;
54665;SDS011;40566;50.006;36.180;2023-02-23T05:18:51;2.17;;;0.65;;
54665;SDS011;40566;50.006;36.180;2023-02-23T05:23:52;5.63;;;2.33;;
54665;SDS011;40566;50.006;36.180;2023-02-23T05:28:53;3.45;;;2.00;;
54665;SDS011;40566;50.006;36.180;2023-02-23T05:33:56;2.35;;;1.58;;
54665;SDS011;40566;50.006;36.180;2023-02-23T05:38:56;3.58;;;2.13;;
54665;SDS011;40566;50.006;36.180;2023-02-23T05:43:57;5.35;;;2.25;;
54665;SDS011;40566;50.006;36.180;2023-02-23T05:48:58;3.42;;;1.40;;
54665;SDS011;40566;50.006;36.180;2023-02-23T05:54:00;4.13;;;1.48;;
54665;SDS011;40566;50.006;36.180;2023-02-23T05:59:01;3.70;;;2.30;;
54665;SDS011;40566;50.006;36.180;2023-02-23T06:04:04;8.63;;;3.67;;
54665;SDS011;40566;50.006;36.180;2023-02-23T06:09:04;9.80;;;3.92;;
54665;SDS011;40566;50.006;36.180;2023-02-23T06:14:05;13.45;;;2.15;;
54665;SDS011;40566;50.006;36.180;2023-02-23T06:19:05;8.60;;;3.25;;
54665;SDS011;40566;50.006;36.180;2023-02-23T06:24:07;6.60;;;2.63;;
54665;SDS011;40566;50.006;36.180;2023-02-23T06:29:07;8.82;;;2.05;;
54665;SDS011;40566;50.006;36.180;2023-02-23T06:34:08;7.82;;;3.13;;
54665;SDS011;40566;50.006;36.180;2023-02-23T06:39:10;7.70;;;3.17;;
54665;SDS011;40566;50.006;36.180;2023-02-23T06:44:11;4.20;;;1.63;;
54665;SDS011;40566;50.006;36.180;2023-02-23T06:49:12;5.00;;;1.58;;
54665;SDS011;40566;50.006;36.180;2023-02-23T06:54:13;2.55;;;1.42;;
54665;SDS011;40566;50.006;36.180;2023-02-23T06:59:13;11.35;;;4.07;;
54665;SDS011;40566;50.006;36.180;2023-02-23T07:04:14;3.83;;;2.00;;
54665;SDS011;40566;50.006;36.180;2023-02-23T07:09:14;6.43;;;3.00;;
54665;SDS011;40566;50.006;36.180;2023-02-23T07:14:15;15.98;;;5.32;;
54665;SDS011;40566;50.006;36.180;2023-02-23T07:19:16;63.65;;;20.17;;
54665;SDS011;40566;50.006;36.180;2023-02-23T07:24:16;7.07;;;3.50;;
54665;SDS011;40566;50.006;36.180;2023-02-23T07:29:17;8.48;;;3.55;;
54665;SDS011;40566;50.006;36.180;2023-02-23T07:34:18;9.52;;;4.03;;
54665;SDS011;40566;50.006;36.180;2023-02-23T07:39:19;11.63;;;4.10;;
54665;SDS011;40566;50.006;36.180;2023-02-23T07:44:19;8.43;;;3.92;;
54665;SDS011;40566;50.006;36.180;2023-02-23T07:49:20;5.80;;;2.55;;
54665;SDS011;40566;50.006;36.180;2023-02-23T07:54:20;9.00;;;3.00;;
54665;SDS011;40566;50.006;36.180;2023-02-23T07:59:21;12.48;;;2.42;;
54665;SDS011;40566;50.006;36.180;2023-02-23T08:04:22;10.07;;;4.03;;
54665;SDS011;40566;50.006;36.180;2023-02-23T08:09:22;10.23;;;3.45;;
54665;SDS011;40566;50.006;36.180;2023-02-23T08:14:23;8.88;;;3.78;;
54665;SDS011;40566;50.006;36.180;2023-02-23T08:19:24;18.67;;;4.50;;
54665;SDS011;40566;50.006;36.180;2023-02-23T08:24:24;13.32;;;5.22;;
54665;SDS011;40566;50.006;36.180;2023-02-23T08:29:26;28.42;;;7.28;;
54665;SDS011;40566;50.006;36.180;2023-02-23T08:34:27;24.45;;;8.57;;
54665;SDS011;40566;50.006;36.180;2023-02-23T08:39:27;24.17;;;6.82;;
54665;SDS011;40566;50.006;36.180;2023-02-23T08:44:28;13.52;;;4.40;;
54665;SDS011;40566;50.006;36.180;2023-02-23T08:49:28;12.48;;;4.57;;
54665;SDS011;40566;50.006;36.180;2023-02-23T08:54:30;24.33;;;4.28;;
54665;SDS011;40566;50.006;36.180;2023-02-23T08:59:30;10.65;;;3.03;;
54665;SDS011;40566;50.006;36.180;2023-02-23T09:04:31;14.38;;;4.68;;
54665;SDS011;40566;50.006;36.180;2023-02-23T09:09:34;18.80;;;4.82;;
54665;SDS011;40566;50.006;36.180;2023-02-23T09:14:35;11.52;;;3.72;;
54665;SDS011;40566;50.006;36.180;2023-02-23T09:19:36;9.52;;;4.13;;
54665;SDS011;40566;50.006;36.180;2023-02-23T09:24:36;12.38;;;4.65;;
54665;SDS011;40566;50.006;36.180;2023-02-23T09:29:37;13.02;;;5.05;;
54665;SDS011;40566;50.006;36.180;2023-02-23T09:34:42;17.08;;;5.78;;
54665;SDS011;40566;50.006;36.180;2023-02-23T09:39:43;18.92;;;7.18;;
54665;SDS011;40566;50.006;36.180;2023-02-23T09:45:00;13.85;;;6.00;;
54665;SDS011;40566;50.006;36.180;2023-02-23T09:50:21;15.65;;;6.70;;
54665;SDS011;40566;50.006;36.180;2023-02-23T09:55:24;14.45;;;6.20;;
54665;SDS011;40566;50.006;36.180;2023-02-23T10:00:26;15.50;;;6.50;;
54665;SDS011;40566;50.006;36.180;2023-02-23T10:05:27;15.45;;;6.22;;
54665;SDS011;40566;50.006;36.180;2023-02-23T10:21:15;18.90;;;7.35;;
54665;SDS011;40566;50.006;36.180;2023-02-23T10:26:24;16.63;;;6.18;;
54665;SDS011;40566;50.006;36.180;2023-02-23T10:31:37;15.00;;;6.45;;
54665;SDS011;40566;50.006;36.180;2023-02-23T10:36:45;14.48;;;5.28;;
54665;SDS011;40566;50.006;36.180;2023-02-23T10:41:50;15.57;;;6.22;;
54665;SDS011;40566;50.006;36.180;2023-02-23T10:47:02;17.33;;;5.78;;
54665;SDS011;40566;50.006;36.180;2023-02-23T10:52:30;14.25;;;5.68;;
54665;SDS011;40566;50.006;36.180;2023-02-23T10:57:35;14.85;;;5.38;;
54665;SDS011;40566;50.006;36.180;2023-02-23T11:02:38;15.25;;;6.15;;
54665;SDS011;40566;50.006;36.180;2023-02-23T11:07:40;14.82;;;6.93;;
54665;SDS011;40566;50.006;36.180;2023-02-23T11:12:42;13.38;;;5.00;;
54665;SDS011;40566;50.006;36.180;2023-02-23T11:17:43;16.08;;;6.10;;
54665;SDS011;40566;50.006;36.180;2023-02-23T11:22:44;15.07;;;5.88;;
54665;SDS011;40566;50.006;36.180;2023-02-23T11:27:46;13.77;;;5.43;;
54665;SDS011;40566;50.006;36.180;2023-02-23T11:32:52;17.67;;;5.57;;
54665;SDS011;40566;50.006;36.180;2023-02-23T11:37:55;17.13;;;6.28;;
54665;SDS011;40566;50.006;36.180;2023-02-23T11:43:17;14.93;;;5.65;;
54665;SDS011;40566;50.006;36.180;2023-02-23T11:53:30;15.88;;;5.65;;
54665;SDS011;40566;50.006;36.180;2023-02-23T11:58:37;12.25;;;3.97;;
54665;SDS011;40566;50.006;36.180;2023-02-23T12:03:44;13.00;;;3.75;;
54665;SDS011;40566;50.006;36.180;2023-02-23T12:08:48;10.43;;;3.97;;
54665;SDS011;40566;50.006;36.180;2023-02-23T12:19:32;8.40;;;3.50;;
54665;SDS011;40566;50.006;36.180;2023-02-23T12:24:43;10.10;;;2.45;;
54665;SDS011;40566;50.006;36.180;2023-02-23T12:30:15;8.15;;;2.97;;
54665;SDS011;40566;50.006;36.180;2023-02-23T12:35:22;6.05;;;2.55;;
54665;SDS011;40566;50.006;36.180;2023-02-23T12:40:31;8.90;;;2.50;;
54665;SDS011;40566;50.006;36.180;2023-02-23T12:45:39;7.78;;;2.45;;
54665;SDS011;40566;50.006;36.180;2023-02-23T12:50:55;9.30;;;3.13;;
54665;SDS011;40566;50.006;36.180;2023-02-23T13:01:38;10.15;;;3.45;;
54665;SDS011;40566;50.006;36.180;2023-02-23T13:22:36;9.13;;;2.35;;
54665;SDS011;40566;50.006;36.180;2023-02-23T13:27:48;6.50;;;2.35;;
54665;SDS011;40566;50.006;36.180;2023-02-23T13:32:53;12.40;;;3.40;;
54665;SDS011;40566;50.006;36.180;2023-02-23T13:37:57;6.25;;;2.22;;
54665;SDS011;40566;50.006;36.180;2023-02-23T13:48:34;8.52;;;2.47;;
54665;SDS011;40566;50.006;36.180;2023-02-23T13:58:50;3.50;;;1.58;;
54665;SDS011;40566;50.006;36.180;2023-02-23T14:03:57;9.05;;;3.47;;
54665;SDS011;40566;50.006;36.180;2023-02-23T14:09:07;6.05;;;2.03;;
54665;SDS011;40566;50.006;36.180;2023-02-23T14:14:11;4.55;;;2.17;;
54665;SDS011;40566;50.006;36.180;2023-02-23T14:19:35;7.57;;;2.45;;
54665;SDS011;40566;50.006;36.180;2023-02-23T14:24:37;7.95;;;3.40;;
54665;SDS011;40566;50.006;36.180;2023-02-23T14:39:48;6.40;;;2.63;;
54665;SDS011;40566;50.006;36.180;2023-02-23T14:44:52;5.95;;;2.60;;
54665;SDS011;40566;50.006;36.180;2023-02-23T14:49:55;6.97;;;2.83;;
54665;SDS011;40566;50.006;36.180;2023-02-23T15:00:17;5.32;;;2.20;;
54665;SDS011;40566;50.006;36.180;2023-02-23T15:05:23;10.40;;;3.45;;
54665;SDS011;40566;50.006;36.180;2023-02-23T15:10:37;7.45;;;2.78;;
54665;SDS011;40566;50.006;36.180;2023-02-23T15:15:40;10.32;;;3.72;;
54665;SDS011;40566;50.006;36.180;2023-02-23T15:20:47;15.18;;;5.07;;
54665;SDS011;40566;50.006;36.180;2023-02-23T15:25:48;8.70;;;3.35;;
54665;SDS011;40566;50.006;36.180;2023-02-23T15:30:51;9.13;;;4.13;;
54665;SDS011;40566;50.006;36.180;2023-02-23T15:36:08;4.05;;;2.08;;
54665;SDS011;40566;50.006;36.180;2023-02-23T15:41:34;8.20;;;3.05;;
54665;SDS011;40566;50.006;36.180;2023-02-23T15:46:37;8.57;;;2.92;;
54665;SDS011;40566;50.006;36.180;2023-02-23T15:51:44;7.22;;;3.08;;
54665;SDS011;40566;50.006;36.180;2023-02-23T15:56:49;6.30;;;2.00;;
54665;SDS011;40566;50.006;36.180;2023-02-23T16:01:57;7.57;;;3.05;;
54665;SDS011;40566;50.006;36.180;2023-02-23T16:12:28;5.30;;;2.25;;
54665;SDS011;40566;50.006;36.180;2023-02-23T16:17:41;13.45;;;3.35;;
54665;SDS011;40566;50.006;36.180;2023-02-23T16:22:44;6.95;;;3.35;;
54665;SDS011;40566;50.006;36.180;2023-02-23T16:27:48;15.65;;;6.20;;
54665;SDS011;40566;50.006;36.180;2023-02-23T16:33:05;8.40;;;3.58;;
54665;SDS011;40566;50.006;36.180;2023-02-23T16:38:13;13.85;;;5.78;;
54665;SDS011;40566;50.006;36.180;2023-02-23T16:43:34;17.38;;;4.90;;
54665;SDS011;40566;50.006;36.180;2023-02-23T16:48:35;12.43;;;3.97;;
54665;SDS011;40566;50.006;36.180;2023-02-23T16:53:37;15.65;;;4.85;;
54665;SDS011;40566;50.006;36.180;2023-02-23T16:58:40;29.05;;;7.72;;
54665;SDS011;40566;50.006;36.180;2023-02-23T17:03:43;13.98;;;5.90;;
54665;SDS011;40566;50.006;36.180;2023-02-23T17:08:44;13.88;;;5.05;;
54665;SDS011;40566;50.006;36.180;2023-02-23T17:13:44;14.27;;;4.60;;
54665;SDS011;40566;50.006;36.180;2023-02-23T17:18:45;12.48;;;5.13;;
54665;SDS011;40566;50.006;36.180;2023-02-23T17:23:47;9.27;;;3.88;;
54665;SDS011;40566;50.006;36.180;2023-02-23T17:28:50;11.55;;;5.65;;
54665;SDS011;40566;50.006;36.180;2023-02-23T17:33:51;16.80;;;6.57;;
54665;SDS011;40566;50.006;36.180;2023-02-23T17:38:52;28.55;;;9.02;;
54665;SDS011;40566;50.006;36.180;2023-02-23T17:44:02;20.15;;;8.40;;
54665;SDS011;40566;50.006;36.180;2023-02-23T17:49:04;15.35;;;6.03;;
54665;SDS011;40566;50.006;36.180;2023-02-23T17:54:05;15.43;;;3.45;;
54665;SDS011;40566;50.006;36.180;2023-02-23T17:59:06;30.88;;;6.70;;
54665;SDS011;40566;50.006;36.180;2023-02-23T18:04:06;10.65;;;4.22;;
54665;SDS011;40566;50.006;36.180;2023-02-23T18:09:07;13.32;;;4.13;;
54665;SDS011;40566;50.006;36.180;2023-02-23T18:14:12;7.95;;;2.63;;
54665;SDS011;40566;50.006;36.180;2023-02-23T18:19:13;13.80;;;4.97;;
54665;SDS011;40566;50.006;36.180;2023-02-23T18:24:14;9.57;;;3.95;;
54665;SDS011;40566;50.006;36.180;2023-02-23T18:29:15;7.25;;;3.92;;
54665;SDS011;40566;50.006;36.180;2023-02-23T18:34:18;6.63;;;3.67;;
54665;SDS011;40566;50.006;36.180;2023-02-23T18:39:19;7.45;;;3.75;;
54665;SDS011;40566;50.006;36.180;2023-02-23T18:44:19;6.53;;;3.38;;
54665;SDS011;40566;50.006;36.180;2023-02-23T18:49:23;7.45;;;4.03;;
54665;SDS011;40566;50.006;36.180;2023-02-23T18:54:24;5.70;;;2.45;;
54665;SDS011;40566;50.006;36.180;2023-02-23T18:59:25;6.72;;;2.45;;
54665;SDS011;40566;50.006;36.180;2023-02-23T19:04:26;5.25;;;2.47;;
54665;SDS011;40566;50.006;36.180;2023-02-23T19:09:27;6.70;;;3.20;;
54665;SDS011;40566;50.006;36.180;2023-02-23T19:14:27;8.77;;;4.25;;
54665;SDS011;40566;50.006;36.180;2023-02-23T19:19:28;17.65;;;4.65;;
54665;SDS011;40566;50.006;36.180;2023-02-23T19:24:29;9.57;;;3.88;;
54665;SDS011;40566;50.006;36.180;2023-02-23T19:29:29;14.38;;;4.40;;
54665;SDS011;40566;50.006;36.180;2023-02-23T19:34:30;18.17;;;5.30;;
54665;SDS011;40566;50.006;36.180;2023-02-23T19:39:30;15.65;;;4.88;;
54665;SDS011;40566;50.006;36.180;2023-02-23T19:44:31;10.50;;;4.20;;
54665;SDS011;40566;50.006;36.180;2023-02-23T19:49:33;15.25;;;6.97;;
54665;SDS011;40566;50.006;36.180;2023-02-23T19:54:33;9.90;;;3.60;;
54665;SDS011;40566;50.006;36.180;2023-02-23T19:59:36;8.93;;;3.30;;
54665;SDS011;40566;50.006;36.180;2023-02-23T20:04:37;16.85;;;3.75;;
54665;SDS011;40566;50.006;36.180;2023-02-23T20:09:38;11.68;;;4.30;;
54665;SDS011;40566;50.006;36.180;2023-02-23T20:14:38;8.77;;;3.35;;
54665;SDS011;40566;50.006;36.180;2023-02-23T20:19:40;8.23;;;4.20;;
54665;SDS011;40566;50.006;36.180;2023-02-23T20:24:41;10.10;;;4.40;;
54665;SDS011;40566;50.006;36.180;2023-02-23T20:29:42;10.85;;;3.83;;
54665;SDS011;40566;50.006;36.180;2023-02-23T20:34:43;16.50;;;4.70;;
54665;SDS011;40566;50.006;36.180;2023-02-23T20:39:48;8.57;;;4.13;;
54665;SDS011;40566;50.006;36.180;2023-02-23T20:44:48;12.10;;;4.47;;
54665;SDS011;40566;50.006;36.180;2023-02-23T20:49:49;10.77;;;4.60;;
54665;SDS011;40566;50.006;36.180;2023-02-23T20:54:49;12.13;;;3.85;;
54665;SDS011;40566;50.006;36.180;2023-02-23T20:59:50;10.55;;;3.25;;
54665;SDS011;40566;50.006;36.180;2023-02-23T21:04:51;7.93;;;3.80;;
54665;SDS011;40566;50.006;36.180;2023-02-23T21:09:51;11.57;;;2.97;;
54665;SDS011;40566;50.006;36.180;2023-02-23T21:20:03;14.00;;;5.55;;
54665;SDS011;40566;50.006;36.180;2023-02-23T21:25:06;5.82;;;3.08;;
54665;SDS011;40566;50.006;36.180;2023-02-23T21:30:10;23.63;;;5.75;;
54665;SDS011;40566;50.006;36.180;2023-02-23T21:35:15;14.15;;;5.50;;
54665;SDS011;40566;50.006;36.180;2023-02-23T21:45:19;17.48;;;7.93;;
54665;SDS011;40566;50.006;36.180;2023-02-23T21:50:20;24.65;;;9.35;;
54665;SDS011;40566;50.006;36.180;2023-02-23T21:55:21;24.77;;;10.27;;
54665;SDS011;40566;50.006;36.180;2023-02-23T22:00:21;22.60;;;9.10;;
54665;SDS011;40566;50.006;36.180;2023-02-23T22:05:23;20.13;;;6.95;;
54665;SDS011;40566;50.006;36.180;2023-02-23T22:10:23;15.93;;;6.22;;
54665;SDS011;40566;50.006;36.180;2023-02-23T22:15:24;23.98;;;9.43;;
54665;SDS011;40566;50.006;36.180;2023-02-23T22:20:27;30.50;;;9.45;;
54665;SDS011;40566;50.006;36.180;2023-02-23T22:25:28;29.98;;;11.07;;
54665;SDS011;40566;50.006;36.180;2023-02-23T22:30:29;30.55;;;14.27;;
54665;SDS011;40566;50.006;36.180;2023-02-23T22:35:30;14.95;;;8.48;;
54665;SDS011;40566;50.006;36.180;2023-02-23T22:40:30;22.05;;;9.40;;
54665;SDS011;40566;50.006;36.180;2023-02-23T22:45:31;32.83;;;12.95;;
54665;SDS011;40566;50.006;36.180;2023-02-23T22:50:32;28.30;;;13.23;;
54665;SDS011;40566;50.006;36.180;2023-02-23T22:55:33;30.50;;;12.07;;
54665;SDS011;40566;50.006;36.180;2023-02-23T23:00:34;20.25;;;8.38;;
54665;SDS011;40566;50.006;36.180;2023-02-23T23:05:34;36.42;;;12.57;;
54665;SDS011;40566;50.006;36.180;2023-02-23T23:10:36;21.17;;;11.23;;
54665;SDS011;40566;50.006;36.180;2023-02-23T23:15:37;18.33;;;6.88;;
54665;SDS011;40566;50.006;36.180;2023-02-23T23:20:38;23.52;;;10.32;;
54665;SDS011;40566;50.006;36.180;2023-02-23T23:25:46;15.77;;;7.70;;
54665;SDS011;40566;50.006;36.180;2023-02-23T23:30:46;22.15;;;7.57;;
54665;SDS011;40566;50.006;36.180;2023-02-23T23:35:51;30.60;;;10.93;;
54665;SDS011;40566;50.006;36.180;2023-02-23T23:40:51;23.92;;;11.82;;
54665;SDS011;40566;50.006;36.180;2023-02-23T23:45:52;21.05;;;10.20;;
54665;SDS011;40566;50.006;36.180;2023-02-23T23:50:53;26.13;;;11.88;;
54665;SDS011;40566;50.006;36.180;2023-02-23T23:55:55;31.67;;;9.98;;
